Time;durP1;ratioP1;P1;durP2;ratioP2;P2;SDS_P1;SDS_P2;PMS_P1;PMS_P2;Temp;Humidity;BMP_temperature;BMP_pressure;BME280_temperature;BME280_humidity;BME280_pressure;Samples;Min_cycle;Max_cycle;Signal;HPM_P1;HPM_P2
2024/03/06 00:01:36;;;;;;;14.85;9.13;;;;;;;4.36;96.61;101199.94;4918417;29;20276;-83
2024/03/06 00:04:06;;;;;;;15.77;9.98;;;;;;;4.26;96.87;101206.63;4907205;29;20035;-86
2024/03/06 00:06:33;;;;;;;18.55;10.27;;;;;;;4.21;96.17;101209.91;4927740;29;20047;-85
2024/03/06 00:09:02;;;;;;;18.77;9.75;;;;;;;4.25;96.57;101212.63;4909048;29;20085;-85
2024/03/06 00:11:31;;;;;;;17.60;9.95;;;;;;;4.32;97.12;101215.38;4938842;29;20056;-85
2024/03/06 00:14:00;;;;;;;18.65;10.00;;;;;;;4.40;95.87;101213.84;4921344;29;20066;-84
2024/03/06 00:16:27;;;;;;;20.67;9.65;;;;;;;4.41;96.13;101221.66;4936691;29;20485;-84
2024/03/06 00:18:55;;;;;;;13.43;9.05;;;;;;;4.46;96.07;101216.63;4921195;29;20051;-85
2024/03/06 00:21:22;;;;;;;18.92;10.48;;;;;;;4.44;96.36;101226.91;4925700;29;20456;-85
2024/03/06 00:23:49;;;;;;;15.85;10.05;;;;;;;4.43;95.34;101225.19;4902155;29;20420;-85
2024/03/06 00:26:16;;;;;;;14.27;9.13;;;;;;;4.41;95.39;101223.41;4912874;29;20028;-83
2024/03/06 00:28:45;;;;;;;22.55;10.07;;;;;;;4.40;95.25;101225.09;4917738;29;20056;-84
2024/03/06 00:31:11;;;;;;;22.23;11.02;;;;;;;4.34;96.93;101231.84;4923252;29;20503;-85
2024/03/06 00:33:44;;;;;;;17.02;9.80;;;;;;;4.39;96.29;101231.09;4908099;29;20067;-84
2024/03/06 00:36:10;;;;;;;14.70;10.02;;;;;;;4.39;95.78;101232.84;4941755;29;20071;-86
2024/03/06 00:38:37;;;;;;;17.65;10.52;;;;;;;4.38;95.38;101239.75;4921305;29;20064;-86
2024/03/06 00:41:04;;;;;;;15.55;9.50;;;;;;;4.40;95.88;101237.19;4928632;29;20054;-81
2024/03/06 00:43:31;;;;;;;17.88;9.85;;;;;;;4.48;96.00;101238.25;4923318;29;20062;-86
2024/03/06 00:46:00;;;;;;;14.00;9.82;;;;;;;4.52;95.30;101239.22;4939480;29;20032;-87
2024/03/06 00:48:32;;;;;;;16.33;8.73;;;;;;;4.43;94.85;101235.56;4920585;29;20080;-86
2024/03/06 00:50:59;;;;;;;13.60;9.93;;;;;;;4.39;95.46;101241.47;4917924;29;20044;-84
2024/03/06 00:53:30;;;;;;;21.35;10.25;;;;;;;4.42;95.98;101244.16;4922174;29;20115;-85
2024/03/06 00:55:57;;;;;;;19.23;10.65;;;;;;;4.41;96.20;101239.81;4917496;29;20035;-85
2024/03/06 00:58:25;;;;;;;26.60;11.50;;;;;;;4.38;95.96;101251.81;4921279;29;20075;-84
2024/03/06 01:00:52;;;;;;;24.83;10.18;;;;;;;4.36;96.55;101251.78;4907068;29;20475;-85
2024/03/06 01:03:19;;;;;;;16.73;9.90;;;;;;;4.37;96.23;101256.13;4917561;29;20043;-85
2024/03/06 01:05:49;;;;;;;15.35;9.63;;;;;;;4.34;96.58;101252.56;4911522;29;20408;-87
2024/03/06 01:08:17;;;;;;;16.23;10.38;;;;;;;4.35;96.40;101249.16;4928049;29;20083;-83
2024/03/06 01:10:45;;;;;;;14.85;9.65;;;;;;;4.37;96.48;101250.06;4913387;29;20067;-84
2024/03/06 01:13:12;;;;;;;17.17;10.05;;;;;;;4.35;95.80;101249.16;4930903;29;20060;-85
2024/03/06 01:15:41;;;;;;;18.05;10.35;;;;;;;4.27;96.35;101246.34;4925008;29;20094;-84
2024/03/06 01:18:08;;;;;;;19.95;10.77;;;;;;;4.23;96.69;101255.75;4937157;29;20051;-84
2024/03/06 01:20:36;;;;;;;21.85;11.18;;;;;;;4.35;96.35;101257.78;4905570;29;20074;-84
2024/03/06 01:23:02;;;;;;;17.30;9.88;;;;;;;4.33;96.37;101262.06;4922894;29;20043;-86
2024/03/06 01:25:30;;;;;;;16.65;10.20;;;;;;;4.33;96.17;101263.78;4910578;29;20460;-83
2024/03/06 01:27:57;;;;;;;17.77;10.25;;;;;;;4.37;95.98;101271.69;4915598;29;20078;-84
2024/03/06 01:30:24;;;;;;;16.60;10.68;;;;;;;4.37;95.76;101273.38;4931330;29;20120;-85
2024/03/06 01:32:50;;;;;;;17.63;10.30;;;;;;;4.37;96.62;101268.19;4923045;29;20107;-85
2024/03/06 01:35:17;;;;;;;16.30;10.35;;;;;;;4.40;97.13;101270.88;4917460;29;20040;-85
2024/03/06 01:37:44;;;;;;;16.15;9.93;;;;;;;4.46;97.03;101271.91;4936982;29;20048;-86
2024/03/06 01:40:12;;;;;;;19.38;11.65;;;;;;;4.43;96.28;101271.84;4915823;29;20048;-84
2024/03/06 01:42:41;;;;;;;16.23;10.80;;;;;;;4.40;96.31;101276.06;4910080;29;20141;-85
2024/03/06 01:45:10;;;;;;;19.15;11.00;;;;;;;4.43;96.28;101271.84;4934268;29;20048;-85
2024/03/06 01:47:36;;;;;;;19.75;10.55;;;;;;;4.38;96.58;101273.44;4925673;29;20080;-86
2024/03/06 01:50:06;;;;;;;17.90;10.90;;;;;;;4.42;96.89;101282.16;4906131;29;20048;-85
2024/03/06 01:52:32;;;;;;;19.58;11.63;;;;;;;4.32;96.98;101280.19;4906378;29;20044;-83
2024/03/06 01:54:59;;;;;;;18.50;10.63;;;;;;;4.43;97.22;101283.91;4899764;29;20055;-83
2024/03/06 01:57:26;;;;;;;21.80;11.20;;;;;;;4.33;97.11;101285.41;4918105;29;20079;-85
2024/03/06 01:59:53;;;;;;;16.95;11.23;;;;;;;4.25;97.66;101289.47;4913323;29;20520;-86
2024/03/06 02:02:21;;;;;;;23.73;11.50;;;;;;;4.32;98.18;101282.78;4923605;29;20055;-84
2024/03/06 02:04:48;;;;;;;18.50;11.27;;;;;;;4.35;98.02;101283.72;4935957;29;20055;-84
2024/03/06 02:07:22;;;;;;;18.20;10.95;;;;;;;4.42;97.71;101284.75;4936980;29;20047;-84
2024/03/06 02:09:48;;;;;;;14.90;10.43;;;;;;;4.35;97.39;101288.91;4924520;29;20043;-84
2024/03/06 02:12:16;;;;;;;17.95;11.32;;;;;;;4.32;98.13;101295.75;4936208;29;20575;-84
2024/03/06 02:14:42;;;;;;;20.90;10.88;;;;;;;4.29;98.45;101289.63;4925137;29;20047;-85
2024/03/06 02:17:12;;;;;;;16.27;10.30;;;;;;;4.25;98.55;101290.38;4946513;28;20045;-86
2024/03/06 02:19:43;;;;;;;18.55;11.68;;;;;;;4.24;98.92;101286.03;4916287;29;20684;-84
2024/03/06 05:39:25;;;;;;;21.65;13.25;;;;;;;4.17;100.00;101411.06;916895;23;20308;-85
2024/03/06 05:41:52;;;;;;;24.30;12.35;;;;;;;4.15;100.00;101412.75;4943821;28;20058;-85
2024/03/06 05:45:00;;;;;;;;;;;;;;;;;;;;;
2024/03/06 05:47:49;;;;;;;21.20;13.40;;;;;;;4.20;100.00;101416.34;4951171;28;20075;-86
2024/03/06 05:50:48;;;;;;;25.45;13.65;;;;;;;4.15;100.00;101420.53;4946157;28;20098;-88
2024/03/06 05:53:18;;;;;;;25.13;13.50;;;;;;;4.23;100.00;101420.75;4938235;29;20063;-85
2024/03/06 05:55:48;;;;;;;21.75;12.18;;;;;;;4.29;100.00;101429.59;4932664;28;20085;-87
2024/03/06 05:58:18;;;;;;;21.10;13.02;;;;;;;4.29;100.00;101423.53;4921050;29;20242;-86
2024/03/06 06:00:45;;;;;;;21.25;12.93;;;;;;;4.27;100.00;101428.66;4935337;28;20316;-87
2024/03/06 06:03:12;;;;;;;22.45;14.07;;;;;;;4.18;100.00;101428.38;4930579;29;20043;-86
2024/03/06 06:05:42;;;;;;;21.30;11.77;;;;;;;4.17;100.00;101429.19;4916352;28;20059;-84
2024/03/06 06:08:09;;;;;;;20.65;13.48;;;;;;;4.16;100.00;101435.25;4931938;29;20036;-86
2024/03/06 06:10:44;;;;;;;22.90;12.75;;;;;;;4.11;100.00;101431.63;4915154;28;20047;-86
2024/03/06 06:13:12;;;;;;;21.45;15.13;;;;;;;4.03;100.00;101433.09;4937779;29;20031;-86
2024/03/06 06:15:41;;;;;;;25.02;14.55;;;;;;;4.00;100.00;101439.06;4929368;28;20047;-84
2024/03/06 06:18:07;;;;;;;30.98;14.15;;;;;;;4.11;100.00;101436.81;4939003;28;20043;-84
2024/03/06 06:20:35;;;;;;;22.73;15.68;;;;;;;4.13;100.00;101449.00;4926113;28;20039;-85
2024/03/06 06:23:10;;;;;;;26.73;14.93;;;;;;;4.04;100.00;101440.94;4921603;29;20042;-86
2024/03/06 06:25:40;;;;;;;22.92;13.45;;;;;;;4.14;100.00;101453.31;4923311;28;20066;-84
2024/03/06 06:28:10;;;;;;;24.25;13.32;;;;;;;4.07;100.00;101455.69;4922320;28;20046;-85
2024/03/06 06:30:38;;;;;;;21.80;12.65;;;;;;;4.05;100.00;101457.34;4916963;28;20772;-84
2024/03/06 06:33:06;;;;;;;24.77;12.40;;;;;;;3.99;100.00;101460.66;4921715;28;20130;-84
2024/03/06 06:35:38;;;;;;;20.75;11.90;;;;;;;4.00;100.00;101464.97;4927497;28;20454;-86
2024/03/06 06:38:06;;;;;;;25.80;13.68;;;;;;;3.97;100.00;101465.75;4936607;28;20474;-87
2024/03/06 06:40:38;;;;;;;22.20;13.85;;;;;;;3.94;100.00;101470.84;4949907;28;20526;-85
2024/03/06 06:43:23;;;;;;;29.85;14.27;;;;;;;4.11;100.00;101483.47;4953855;28;20070;-84
2024/03/06 06:45:59;;;;;;;25.80;13.98;;;;;;;4.12;100.00;101480.03;4947412;28;20404;-84
2024/03/06 06:48:34;;;;;;;27.95;14.30;;;;;;;4.17;100.00;101491.41;4945663;28;20038;-84
2024/03/06 06:51:07;;;;;;;26.05;14.32;;;;;;;4.20;100.00;101488.91;4963386;28;20058;-84
2024/03/06 06:53:40;;;;;;;20.73;13.27;;;;;;;4.28;100.00;101497.78;4962381;28;20110;-86
2024/03/06 06:56:07;;;;;;;22.60;13.57;;;;;;;4.26;100.00;101502.06;4923997;28;20046;-86
2024/03/06 06:58:43;;;;;;;20.63;13.93;;;;;;;4.29;100.00;101498.69;4947102;28;20813;-83
2024/03/06 07:01:10;;;;;;;21.25;13.65;;;;;;;4.24;100.00;101506.31;4956260;28;20052;-86
2024/03/06 07:03:42;;;;;;;28.65;14.38;;;;;;;4.30;100.00;101511.69;4943397;28;20057;-85
2024/03/06 07:06:11;;;;;;;22.33;14.25;;;;;;;4.29;100.00;101509.94;4958465;28;20054;-87
2024/03/06 07:08:38;;;;;;;25.63;13.07;;;;;;;4.29;100.00;101511.66;4942235;28;20055;-84
2024/03/06 07:11:05;;;;;;;19.65;13.30;;;;;;;4.20;100.00;101512.25;4948034;28;20055;-85
2024/03/06 07:13:35;;;;;;;27.00;14.52;;;;;;;4.17;100.00;101524.22;4937494;28;20048;-86
2024/03/06 07:16:11;;;;;;;24.92;13.05;;;;;;;4.20;100.00;101522.59;4934067;28;20035;-85
2024/03/06 07:18:38;;;;;;;26.92;14.63;;;;;;;4.32;100.00;101531.59;4946687;28;20142;-85
2024/03/06 07:21:11;;;;;;;23.00;12.95;;;;;;;4.44;100.00;101532.84;4949947;28;20053;-88
2024/03/06 07:23:52;;;;;;;23.50;14.38;;;;;;;4.57;100.00;101530.63;4975120;28;20077;-86
2024/03/06 07:26:19;;;;;;;28.67;14.48;;;;;;;4.55;100.00;101540.06;4972107;28;20054;-85
2024/03/06 07:28:58;;;;;;;21.70;12.88;;;;;;;4.42;100.00;101539.69;4978650;28;20034;-85
2024/03/06 07:31:38;;;;;;;22.65;13.63;;;;;;;4.49;100.00;101551.13;4963591;28;20050;-86
2024/03/06 07:34:11;;;;;;;22.25;13.00;;;;;;;4.44;100.00;101552.72;4977647;28;20042;-86
2024/03/06 07:36:50;;;;;;;23.63;13.35;;;;;;;4.49;100.00;101545.09;4981183;28;20045;-87
2024/03/06 07:39:18;;;;;;;21.33;14.05;;;;;;;4.59;100.00;101555.78;4962608;28;20101;-85
2024/03/06 07:41:46;;;;;;;29.52;13.40;;;;;;;4.67;100.00;101552.50;4977002;28;20050;-87
2024/03/06 07:44:16;;;;;;;27.27;13.88;;;;;;;4.68;100.00;101560.38;4966371;28;20038;-86
2024/03/06 07:46:43;;;;;;;23.73;12.90;;;;;;;4.59;100.00;101562.69;4966176;28;20042;-87
2024/03/06 07:49:29;;;;;;;23.40;12.82;;;;;;;4.61;100.00;101559.28;4982392;28;20038;-85
2024/03/06 07:55:11;;;;;;;21.75;13.07;;;;;;;4.71;100.00;101569.94;5049239;23;20640;-89
2024/03/06 07:57:39;;;;;;;18.30;12.50;;;;;;;4.61;100.00;101572.25;4942092;28;20129;-88
2024/03/06 08:00:14;;;;;;;22.20;12.45;;;;;;;4.69;100.00;101575.06;4944443;28;20042;-87
2024/03/06 08:02:46;;;;;;;22.88;13.27;;;;;;;4.83;100.00;101572.03;4944462;28;20043;-87
2024/03/06 08:05:15;;;;;;;23.23;14.45;;;;;;;4.79;100.00;101586.63;4949216;28;20038;-88
2024/03/06 08:07:47;;;;;;;20.58;12.90;;;;;;;4.97;100.00;101581.97;4963032;28;20043;-87
2024/03/06 08:10:19;;;;;;;25.75;13.95;;;;;;;5.11;99.87;101581.47;4952542;28;20141;-90
2024/03/06 08:12:48;;;;;;;;;;;;;;;5.24;98.69;101590.47;4967896;28;20046;-87
2024/03/06 08:15:18;;;;;;;22.15;13.18;;;;;;;4.97;98.56;101594.06;4967178;28;19926;-88
2024/03/06 08:17:52;;;;;;;22.63;13.57;;;;;;;4.92;100.00;101601.69;4952633;28;20518;-89
2024/03/06 08:20:19;;;;;;;22.33;13.30;;;;;;;4.93;99.39;101605.19;4966205;28;20046;-88
2024/03/06 08:22:50;;;;;;;27.42;14.77;;;;;;;4.88;100.00;101604.19;4968393;28;20070;-88
2024/03/06 08:25:17;;;;;;;24.42;13.85;;;;;;;4.96;99.58;101610.47;4948229;28;20541;-88
2024/03/06 08:27:49;;;;;;;21.08;13.75;;;;;;;5.04;99.98;101611.56;4947715;28;20529;-88
2024/03/06 08:33:00;;;;;;;22.17;12.40;;;;;;;5.19;99.13;101612.84;4965124;28;20035;-87
2024/03/06 08:35:27;;;;;;;22.10;13.00;;;;;;;5.39;98.21;101616.88;4963645;28;20047;-89
2024/03/06 08:37:55;;;;;;;22.17;12.38;;;;;;;5.35;96.98;101612.44;4938288;28;20046;-91
2024/03/06 08:40:23;;;;;;;22.15;12.98;;;;;;;5.43;96.39;101621.31;4973168;28;20066;-88
2024/03/06 08:42:51;;;;;;;22.48;13.02;;;;;;;5.53;96.05;101629.34;4956783;28;20047;-88
2024/03/06 08:45:21;;;;;;;25.77;14.75;;;;;;;5.45;96.05;101626.56;4962497;28;20050;-89
2024/03/06 08:47:55;;;;;;;22.38;13.75;;;;;;;5.51;95.55;101641.44;4953928;28;20039;-86
2024/03/06 08:50:22;;;;;;;25.02;13.93;;;;;;;5.51;96.59;101631.91;4968485;28;20027;-88
2024/03/06 08:52:52;;;;;;;22.08;14.70;;;;;;;5.49;95.58;101644.00;4970913;28;20066;-88
2024/03/06 08:55:21;;;;;;;26.95;13.52;;;;;;;5.48;94.67;101639.63;4965906;28;20085;-88
2024/03/06 08:57:50;;;;;;;19.42;12.30;;;;;;;5.58;94.69;101645.94;4963421;28;20075;-89
2024/03/06 09:00:21;;;;;;;22.35;15.75;;;;;;;5.56;94.56;101640.72;4932302;28;20050;-88
2024/03/06 09:02:49;;;;;;;23.23;13.95;;;;;;;5.61;93.86;101646.91;4975740;28;20156;-88
2024/03/06 09:05:16;;;;;;;23.38;12.93;;;;;;;5.71;93.68;101642.88;4963442;28;20422;-90
2024/03/06 09:07:43;;;;;;;20.77;13.20;;;;;;;5.62;93.70;101648.69;4975932;28;20027;-88
2024/03/06 09:10:12;;;;;;;27.90;14.05;;;;;;;5.76;93.84;101640.38;4962559;28;20091;-89
2024/03/06 09:12:41;;;;;;;19.63;12.60;;;;;;;5.89;92.54;101650.28;4979198;28;20098;-87
2024/03/06 09:15:08;;;;;;;22.48;13.45;;;;;;;5.97;92.21;101650.44;4959552;28;20042;-88
2024/03/06 09:17:35;;;;;;;22.50;14.00;;;;;;;6.11;91.89;101646.53;4960932;28;20054;-89
2024/03/06 09:20:09;;;;;;;25.15;13.93;;;;;;;6.23;91.45;101651.16;4964140;28;20035;-91
2024/03/06 09:22:40;;;;;;;22.08;14.25;;;;;;;6.24;91.76;101660.72;4977661;28;20038;-89
2024/03/06 09:25:17;;;;;;;27.40;14.73;;;;;;;6.11;90.57;101663.84;4962383;28;20110;-87
2024/03/06 09:27:48;;;;;;;26.88;14.75;;;;;;;6.11;91.98;101666.44;4976396;28;20121;-88
2024/03/06 09:30:18;;;;;;;23.48;13.80;;;;;;;6.28;90.52;101670.38;4974906;28;20074;-89
2024/03/06 09:32:47;;;;;;;21.67;13.85;;;;;;;6.29;90.76;101677.31;4971389;28;20133;-89
2024/03/06 09:35:17;;;;;;;24.77;14.88;;;;;;;6.33;90.45;101670.47;4962985;28;20138;-87
2024/03/06 09:37:49;;;;;;;26.65;15.15;;;;;;;6.17;91.73;101668.34;4944118;28;20138;-89
2024/03/06 09:40:23;;;;;;;24.00;14.27;;;;;;;6.33;91.39;101678.28;4958402;28;20057;-88
2024/03/06 09:42:51;;;;;;;28.88;16.55;;;;;;;6.51;89.98;101679.59;4946453;28;20055;-88
2024/03/06 09:45:19;;;;;;;25.23;15.52;;;;;;;6.60;89.78;101683.28;4968587;28;20046;-90
2024/03/06 09:47:53;;;;;;;26.40;15.57;;;;;;;6.52;90.09;101683.91;4949774;28;20057;-89
2024/03/06 09:50:26;;;;;;;29.73;15.95;;;;;;;6.71;89.24;101685.25;4967185;28;20054;-90
2024/03/06 09:52:58;;;;;;;24.40;14.68;;;;;;;6.75;88.39;101684.47;4952389;28;20073;-89
2024/03/06 09:55:27;;;;;;;23.67;15.40;;;;;;;6.66;89.64;101689.47;4943426;28;20129;-90
2024/03/06 09:57:53;;;;;;;31.33;16.02;;;;;;;6.72;87.91;101687.88;4960123;28;20030;-86
2024/03/06 10:00:24;;;;;;;24.33;14.30;;;;;;;6.82;88.94;101688.09;4975719;28;20129;-86
2024/03/06 10:03:01;;;;;;;27.00;15.23;;;;;;;6.83;87.38;101693.38;4973405;28;20046;-88
2024/03/06 10:05:31;;;;;;;24.98;15.00;;;;;;;6.78;87.42;101695.84;4971028;28;20035;-88
2024/03/06 10:07:59;;;;;;;27.67;15.43;;;;;;;6.74;88.28;101695.72;4971940;28;20041;-87
2024/03/06 10:10:26;;;;;;;23.88;14.77;;;;;;;6.92;88.16;101692.66;4977739;28;20176;-89
2024/03/06 10:12:54;;;;;;;26.73;15.98;;;;;;;7.12;85.67;101686.19;4971913;28;20238;-89
2024/03/06 10:15:22;;;;;;;24.88;14.80;;;;;;;7.14;85.83;101701.84;4946735;28;20070;-88
2024/03/06 10:18:18;;;;;;;26.10;15.93;;;;;;;7.17;85.42;101708.84;4947902;28;20042;-88
2024/03/06 10:20:45;;;;;;;25.45;14.95;;;;;;;7.33;85.32;101713.56;4959313;28;20074;-90
2024/03/06 10:23:13;;;;;;;27.17;16.17;;;;;;;7.49;84.86;101708.66;4947090;28;20049;-88
2024/03/06 10:25:40;;;;;;;22.38;15.02;;;;;;;7.69;82.74;101702.13;4977332;28;20043;-88
2024/03/06 10:28:12;;;;;;;25.70;15.13;;;;;;;7.60;80.98;101712.34;4944437;28;20050;-87
2024/03/06 10:30:43;;;;;;;26.52;15.45;;;;;;;7.59;81.25;101711.47;4941447;28;20150;-88
2024/03/06 10:33:12;;;;;;;28.30;15.95;;;;;;;7.89;80.36;101709.47;4939647;28;20066;-88
2024/03/06 10:35:47;;;;;;;24.20;15.20;;;;;;;7.89;80.11;101715.53;4954412;28;20051;-88
2024/03/06 10:38:16;;;;;;;20.75;14.52;;;;;;;7.95;78.60;101720.00;4956837;28;20082;-88
2024/03/06 10:40:45;;;;;;;34.25;15.93;;;;;;;8.06;77.21;101718.47;4948329;28;20047;-91
2024/03/06 10:43:13;;;;;;;23.58;14.88;;;;;;;8.05;78.19;101728.88;4926325;28;20043;-87
2024/03/06 10:45:54;;;;;;;27.98;15.80;;;;;;;8.34;76.62;101724.19;4932019;28;20077;-91
2024/03/06 10:48:21;;;;;;;26.23;15.70;;;;;;;8.26;76.11;101725.78;4959914;28;20027;-88
2024/03/06 10:50:51;;;;;;;28.80;14.95;;;;;;;8.58;75.62;101722.88;4939381;28;20089;-88
2024/03/06 10:53:21;;;;;;;27.13;16.25;;;;;;;8.98;73.33;101718.25;4944824;28;20063;-86
2024/03/06 10:55:50;;;;;;;36.15;16.10;;;;;;;8.69;71.46;101721.31;4944204;28;20046;-89
2024/03/06 10:58:21;;;;;;;33.58;16.48;;;;;;;8.73;71.97;101707.44;4964389;28;20042;-90
2024/03/06 11:00:52;;;;;;;23.17;15.70;;;;;;;8.46;71.07;101730.50;4956013;28;20129;-91
2024/03/06 11:03:26;;;;;;;26.35;15.32;;;;;;;8.66;71.35;101726.50;4947999;28;20039;-88
2024/03/06 11:05:53;;;;;;;24.65;16.10;;;;;;;9.09;70.52;101727.16;4931996;28;20082;-87
2024/03/06 11:08:25;;;;;;;23.70;15.63;;;;;;;9.27;67.93;101717.81;4959398;28;20046;-87
2024/03/06 11:10:53;;;;;;;24.40;16.08;;;;;;;9.52;67.72;101721.63;4940259;28;20090;-87
2024/03/06 11:13:26;;;;;;;25.63;15.77;;;;;;;9.25;67.27;101728.22;4952967;28;20047;-88
2024/03/06 11:15:56;;;;;;;;;;;;;;;9.27;67.61;101731.75;4942584;28;20138;-89
2024/03/06 11:18:29;;;;;;;26.80;15.90;;;;;;;9.32;67.93;101729.22;4943644;28;19959;-88
2024/03/06 11:21:05;;;;;;;22.70;14.43;;;;;;;9.26;68.03;101729.13;4956500;28;20071;-87
2024/03/06 11:23:34;;;;;;;30.52;15.98;;;;;;;9.04;68.85;101735.78;4956108;28;20294;-86
2024/03/06 11:26:05;;;;;;;20.20;14.93;;;;;;;9.04;67.80;101734.03;4946023;28;20035;-86
2024/03/06 11:28:34;;;;;;;29.95;16.10;;;;;;;8.93;69.39;101736.50;4961132;28;20062;-90
2024/03/06 11:31:14;;;;;;;25.90;15.13;;;;;;;9.12;69.32;101736.75;4938487;28;20051;-86
2024/03/06 11:33:45;;;;;;;24.80;15.00;;;;;;;8.94;68.60;101742.59;4958569;28;20049;-87
2024/03/06 11:36:22;;;;;;;24.20;16.85;;;;;;;8.73;69.04;101741.38;4939102;28;20054;-89
2024/03/06 11:39:06;;;;;;;19.80;14.38;;;;;;;8.61;69.99;101746.41;4955254;28;20057;-88
2024/03/06 11:41:49;;;;;;;;;;;;;;;8.87;69.22;101732.91;4972847;28;20110;-88
2024/03/06 11:47:18;;;;;;;25.90;14.82;;;;;;;8.97;68.79;101733.91;4975899;28;20371;-88
2024/03/06 11:49:52;;;;;;;18.67;13.32;;;;;;;8.60;67.33;101745.56;4943304;28;20042;-87
2024/03/06 11:52:23;;;;;;;25.15;14.10;;;;;;;8.66;67.99;101739.53;4940895;28;20087;-89
2024/03/06 11:54:53;;;;;;;26.55;16.20;;;;;;;8.60;66.62;101735.13;4969982;28;20058;-88
2024/03/06 12:03:45;;;;;;;26.60;13.90;;;;;;;8.76;64.29;101735.34;4956311;28;20353;-90
2024/03/06 12:06:19;;;;;;;24.13;13.50;;;;;;;8.67;64.34;101737.81;4985062;28;20668;-84
2024/03/06 12:08:47;;;;;;;27.02;14.23;;;;;;;8.54;64.59;101742.84;4943051;28;20928;-88
2024/03/06 12:11:18;;;;;;;21.35;13.90;;;;;;;8.78;65.33;101744.94;4944263;28;20115;-88
2024/03/06 12:13:47;;;;;;;24.52;14.63;;;;;;;8.89;65.13;101739.03;4953329;28;20057;-89
2024/03/06 12:16:17;;;;;;;20.42;13.55;;;;;;;9.01;64.52;101741.84;4962226;28;20069;-88
2024/03/06 12:18:47;;;;;;;20.00;13.40;;;;;;;8.83;64.22;101752.88;4946611;28;20050;-88
2024/03/06 12:21:15;;;;;;;24.02;14.02;;;;;;;8.81;64.48;101746.72;4961440;28;20042;-88
2024/03/06 12:23:44;;;;;;;23.42;14.48;;;;;;;8.91;64.37;101745.16;4939569;28;20050;-89
2024/03/06 12:26:12;;;;;;;25.95;14.25;;;;;;;8.99;64.45;101743.53;4958576;28;20050;-87
2024/03/06 12:28:46;;;;;;;23.52;15.15;;;;;;;8.97;63.84;101741.75;4948588;28;21190;-87
2024/03/06 12:31:16;;;;;;;22.52;14.70;;;;;;;9.15;63.43;101749.00;4945637;28;20051;-89
2024/03/06 12:33:43;;;;;;;18.45;12.35;;;;;;;9.08;63.22;101748.03;4976278;28;20042;-87
2024/03/06 12:36:11;;;;;;;20.20;12.77;;;;;;;8.98;63.00;101747.00;4961688;28;20051;-89
2024/03/06 12:38:39;;;;;;;22.95;14.65;;;;;;;8.97;63.84;101752.19;4944384;28;20062;-86
2024/03/06 12:41:07;;;;;;;17.98;12.93;;;;;;;8.78;63.92;101751.91;4944342;28;20605;-88
2024/03/06 12:43:37;;;;;;;21.63;14.95;;;;;;;9.02;63.73;101742.69;4929771;28;20362;-89
2024/03/06 12:46:04;;;;;;;22.80;14.00;;;;;;;9.14;63.13;101742.00;4934399;28;20141;-87
2024/03/06 12:48:32;;;;;;;23.38;14.20;;;;;;;8.85;63.02;101745.06;4946265;28;20039;-90
2024/03/06 12:51:04;;;;;;;22.80;13.98;;;;;;;8.92;63.80;101744.31;4942973;28;20067;-88
2024/03/06 12:53:34;;;;;;;24.52;15.50;;;;;;;9.20;63.61;101739.47;4965354;28;20039;-89
2024/03/06 12:56:02;;;;;;;26.58;14.48;;;;;;;9.43;62.28;101735.44;4937645;28;20063;-88
2024/03/06 12:58:31;;;;;;;20.95;13.77;;;;;;;9.43;62.21;101732.84;4959272;28;20122;-90
2024/03/06 13:00:59;;;;;;;21.40;13.85;;;;;;;9.70;61.97;101743.63;4974791;28;20042;-89
2024/03/06 13:03:29;;;;;;;20.98;13.73;;;;;;;10.06;61.96;101727.50;4963050;28;20058;-90
2024/03/06 13:05:58;;;;;;;28.00;15.77;;;;;;;9.93;60.58;101738.66;4954435;28;20054;-89
2024/03/06 13:08:25;;;;;;;20.85;14.80;;;;;;;10.04;61.26;101730.94;4944719;28;20038;-88
2024/03/06 13:10:52;;;;;;;22.65;13.88;;;;;;;10.03;60.48;101731.81;4944935;28;20052;-86
2024/03/06 13:13:23;;;;;;;21.70;13.85;;;;;;;9.96;61.17;101729.97;4946817;28;20047;-89
2024/03/06 13:15:52;;;;;;;24.48;13.95;;;;;;;9.55;61.30;101736.47;4933151;28;20128;-89
2024/03/06 13:18:19;;;;;;;22.63;14.30;;;;;;;10.35;59.64;101726.94;4960896;28;20169;-86
2024/03/06 13:20:46;;;;;;;26.33;13.93;;;;;;;10.87;58.21;101729.09;4959097;28;20101;-87
2024/03/06 13:23:13;;;;;;;22.58;14.57;;;;;;;10.69;58.04;101729.84;4942441;28;20051;-87
2024/03/06 13:25:43;;;;;;;26.55;13.80;;;;;;;10.56;59.05;101731.47;4941451;28;20073;-90
2024/03/06 13:28:11;;;;;;;27.92;15.02;;;;;;;10.34;59.29;101733.00;4955778;28;20046;-88
2024/03/06 13:30:39;;;;;;;24.20;15.95;;;;;;;10.59;59.20;101730.63;4943393;28;20212;-87
2024/03/06 13:33:18;;;;;;;23.70;14.70;;;;;;;10.92;58.93;101730.00;4950559;28;20034;-86
2024/03/06 13:35:45;;;;;;;23.55;15.25;;;;;;;11.15;58.03;101738.88;4943863;28;20050;-88
2024/03/06 13:38:20;;;;;;;20.58;13.82;;;;;;;11.72;57.35;101737.41;4962524;28;20049;-87
2024/03/06 13:40:50;;;;;;;22.90;14.95;;;;;;;11.96;56.84;101741.00;4957758;28;20554;-87
2024/03/06 13:43:17;;;;;;;19.05;13.70;;;;;;;11.96;56.23;101741.00;4956426;28;20126;-88
2024/03/06 13:45:52;;;;;;;25.20;14.63;;;;;;;11.51;56.21;101740.81;4956676;28;20053;-90
2024/03/06 13:48:22;;;;;;;22.77;15.05;;;;;;;11.20;58.08;101751.13;4960544;28;20690;-88
2024/03/06 13:50:50;;;;;;;29.90;17.45;;;;;;;11.23;57.23;101743.28;4958472;28;20043;-87
2024/03/06 13:53:17;;;;;;;24.23;16.20;;;;;;;11.27;58.76;101745.94;4929144;28;20193;-88
2024/03/06 13:55:45;;;;;;;26.25;16.05;;;;;;;10.62;59.16;101746.34;4945131;28;20054;-87
2024/03/06 13:58:14;;;;;;;24.85;16.10;;;;;;;10.72;59.52;101736.84;4949101;28;20051;-89
2024/03/06 14:00:42;;;;;;;23.25;15.63;;;;;;;11.39;57.96;101740.75;4964347;28;20052;-86
2024/03/06 14:03:11;;;;;;;21.30;16.13;;;;;;;11.92;56.79;101739.22;4951594;28;20478;-87
2024/03/06 14:05:39;;;;;;;23.63;15.38;;;;;;;12.88;55.67;101734.97;4947907;28;20027;-88
2024/03/06 14:08:07;;;;;;;30.13;15.90;;;;;;;13.03;52.45;101734.03;4955952;28;20043;-86
2024/03/06 14:10:36;;;;;;;23.88;17.05;;;;;;;13.46;52.19;101733.09;4949999;28;20110;-87
2024/03/06 14:13:05;;;;;;;24.23;17.17;;;;;;;14.26;51.91;101733.56;4940577;28;20038;-89
2024/03/06 14:15:33;;;;;;;27.83;17.48;;;;;;;14.36;49.34;101735.25;4950146;28;20525;-88
2024/03/06 14:18:05;;;;;;;23.10;16.48;;;;;;;13.48;50.97;101739.25;4970374;28;20143;-88
2024/03/06 14:20:46;;;;;;;22.83;16.52;;;;;;;14.52;49.59;101731.63;4945231;28;20047;-87
2024/03/06 14:23:17;;;;;;;29.67;16.88;;;;;;;15.28;49.14;101732.66;4952230;28;20098;-86
2024/03/06 14:25:44;;;;;;;27.33;16.05;;;;;;;15.74;48.31;101728.59;4956242;28;20459;-88
2024/03/06 14:28:14;;;;;;;32.45;19.05;;;;;;;15.66;45.95;101726.06;4949994;28;20053;-86
2024/03/06 14:30:42;;;;;;;21.52;15.98;;;;;;;15.87;46.75;101730.22;4944071;28;20532;-88
2024/03/06 14:33:11;;;;;;;29.55;16.55;;;;;;;15.50;46.96;101731.53;4928359;28;20054;-87
2024/03/06 14:35:41;;;;;;;22.77;16.92;;;;;;;14.94;47.32;101739.19;4944125;28;20106;-88
2024/03/06 14:38:08;;;;;;;24.02;16.70;;;;;;;15.13;47.14;101734.56;4964061;28;20049;-88
2024/03/06 14:40:38;;;;;;;19.63;15.27;;;;;;;15.19;47.49;101733.66;4948149;28;20054;-89
2024/03/06 14:43:09;;;;;;;24.90;17.02;;;;;;;14.34;47.02;101734.38;4945227;28;20118;-86
2024/03/06 14:45:47;;;;;;;23.60;15.95;;;;;;;14.08;47.39;101735.44;4966187;28;20055;-88
2024/03/06 14:48:16;;;;;;;21.65;16.80;;;;;;;13.63;49.86;101742.69;4966769;28;20050;-85
2024/03/06 14:50:48;;;;;;;20.98;16.35;;;;;;;13.08;50.01;101740.16;4981939;28;20110;-88
2024/03/06 14:53:19;;;;;;;18.42;14.65;;;;;;;13.86;49.71;101732.91;4948797;28;20038;-89
2024/03/06 14:55:47;;;;;;;19.80;15.60;;;;;;;13.48;49.61;101740.97;4962997;28;20414;-88
2024/03/06 14:58:19;;;;;;;18.98;14.38;;;;;;;13.01;50.76;101732.28;4965589;28;20094;-87
2024/03/06 15:00:50;;;;;;;25.00;16.00;;;;;;;13.36;49.72;101733.97;4932069;28;20149;-87
2024/03/06 15:03:20;;;;;;;26.50;17.50;;;;;;;13.04;49.66;101740.19;4954170;28;20313;-91